sensor_id;sensor_type;location;lat;lon;timestamp;temperature;humidity
42099;DHT22;27758;55.900;8.516;2023-04-01T00:02:07;6.10;99.90
42099;DHT22;27758;55.900;8.516;2023-04-01T00:04:33;6.10;99.90
42099;DHT22;27758;55.900;8.516;2023-04-01T00:06:59;6.10;99.90
42099;DHT22;27758;55.900;8.516;2023-04-01T00:09:25;6.00;99.90
42099;DHT22;27758;55.900;8.516;2023-04-01T00:11:51;6.00;99.90
42099;DHT22;27758;55.900;8.516;2023-04-01T00:14:17;6.00;99.90
42099;DHT22;27758;55.900;8.516;2023-04-01T00:16:43;6.00;99.90
42099;DHT22;27758;55.900;8.516;2023-04-01T00:19:08;5.90;99.90
42099;DHT22;27758;55.900;8.516;2023-04-01T00:21:34;5.90;99.90
42099;DHT22;27758;55.900;8.516;2023-04-01T00:24:02;5.90;99.90
42099;DHT22;27758;55.900;8.516;2023-04-01T00:26:28;5.90;99.90
42099;DHT22;27758;55.900;8.516;2023-04-01T00:28:53;5.80;99.90
42099;DHT22;27758;55.900;8.516;2023-04-01T00:31:19;5.80;99.90
42099;DHT22;27758;55.900;8.516;2023-04-01T00:33:45;5.80;99.90
42099;DHT22;27758;55.900;8.516;2023-04-01T00:36:14;5.80;99.90
42099;DHT22;27758;55.900;8.516;2023-04-01T00:38:40;5.80;99.90
42099;DHT22;27758;55.900;8.516;2023-04-01T00:41:08;5.70;99.90
42099;DHT22;27758;55.900;8.516;2023-04-01T00:43:36;5.70;99.90
42099;DHT22;27758;55.900;8.516;2023-04-01T00:46:01;5.70;99.90
42099;DHT22;27758;55.900;8.516;2023-04-01T00:48:33;5.60;99.90
42099;DHT22;27758;55.900;8.516;2023-04-01T00:53:30;5.50;99.90
42099;DHT22;27758;55.900;8.516;2023-04-01T00:56:03;5.50;99.90
42099;DHT22;27758;55.900;8.516;2023-04-01T00:58:31;5.50;99.90
42099;DHT22;27758;55.900;8.516;2023-04-01T01:00:59;5.50;99.90
42099;DHT22;27758;55.900;8.516;2023-04-01T01:03:26;5.40;99.90
42099;DHT22;27758;55.900;8.516;2023-04-01T01:09:05;5.30;99.90
42099;DHT22;27758;55.900;8.516;2023-04-01T01:11:58;5.30;99.90
42099;DHT22;27758;55.900;8.516;2023-04-01T01:14:55;5.30;99.90
42099;DHT22;27758;55.900;8.516;2023-04-01T01:17:30;5.30;99.90
42099;DHT22;27758;55.900;8.516;2023-04-01T01:20:14;5.20;99.90
42099;DHT22;27758;55.900;8.516;2023-04-01T01:28:46;5.20;99.90
42099;DHT22;27758;55.900;8.516;2023-04-01T01:36:40;5.00;99.90
42099;DHT22;27758;55.900;8.516;2023-04-01T01:39:08;5.00;99.90
42099;DHT22;27758;55.900;8.516;2023-04-01T01:41:36;5.00;99.90
42099;DHT22;27758;55.900;8.516;2023-04-01T01:44:06;5.00;99.90
42099;DHT22;27758;55.900;8.516;2023-04-01T01:46:33;5.00;99.90
42099;DHT22;27758;55.900;8.516;2023-04-01T01:49:00;4.90;99.90
42099;DHT22;27758;55.900;8.516;2023-04-01T01:51:28;4.90;99.90
42099;DHT22;27758;55.900;8.516;2023-04-01T01:53:54;4.90;99.90
42099;DHT22;27758;55.900;8.516;2023-04-01T01:56:23;4.90;99.90
42099;DHT22;27758;55.900;8.516;2023-04-01T01:59:10;4.90;99.90
42099;DHT22;27758;55.900;8.516;2023-04-01T02:01:39;4.90;99.90
42099;DHT22;27758;55.900;8.516;2023-04-01T02:04:07;4.80;99.90
42099;DHT22;27758;55.900;8.516;2023-04-01T02:06:38;4.80;99.90
42099;DHT22;27758;55.900;8.516;2023-04-01T02:09:06;4.80;99.90
42099;DHT22;27758;55.900;8.516;2023-04-01T02:11:52;4.80;99.90
42099;DHT22;27758;55.900;8.516;2023-04-01T02:14:23;4.70;99.90
42099;DHT22;27758;55.900;8.516;2023-04-01T02:17:11;4.70;99.90
42099;DHT22;27758;55.900;8.516;2023-04-01T02:19:43;4.60;99.90
42099;DHT22;27758;55.900;8.516;2023-04-01T02:22:14;4.60;99.90
42099;DHT22;27758;55.900;8.516;2023-04-01T02:24:42;4.50;99.90
42099;DHT22;27758;55.900;8.516;2023-04-01T02:27:09;4.60;99.90
42099;DHT22;27758;55.900;8.516;2023-04-01T02:29:36;4.50;99.90
42099;DHT22;27758;55.900;8.516;2023-04-01T02:32:02;4.50;99.90
42099;DHT22;27758;55.900;8.516;2023-04-01T02:34:29;4.50;99.90
42099;DHT22;27758;55.900;8.516;2023-04-01T02:36:55;4.40;99.90
42099;DHT22;27758;55.900;8.516;2023-04-01T02:39:22;4.40;99.90
42099;DHT22;27758;55.900;8.516;2023-04-01T02:41:48;4.40;99.90
42099;DHT22;27758;55.900;8.516;2023-04-01T02:44:15;4.40;99.90
42099;DHT22;27758;55.900;8.516;2023-04-01T02:46:41;4.40;99.90
42099;DHT22;27758;55.900;8.516;2023-04-01T02:49:07;4.40;99.90
42099;DHT22;27758;55.900;8.516;2023-04-01T02:51:33;4.40;99.90
42099;DHT22;27758;55.900;8.516;2023-04-01T02:53:59;4.40;99.90
42099;DHT22;27758;55.900;8.516;2023-04-01T02:56:25;4.30;99.90
42099;DHT22;27758;55.900;8.516;2023-04-01T02:58:51;4.30;99.90
42099;DHT22;27758;55.900;8.516;2023-04-01T03:01:17;4.30;99.90
42099;DHT22;27758;55.900;8.516;2023-04-01T03:03:43;4.30;99.90
42099;DHT22;27758;55.900;8.516;2023-04-01T03:06:11;4.30;99.90
42099;DHT22;27758;55.900;8.516;2023-04-01T03:08:38;4.30;99.90
42099;DHT22;27758;55.900;8.516;2023-04-01T03:11:04;4.20;99.90
42099;DHT22;27758;55.900;8.516;2023-04-01T03:13:30;4.20;99.90
42099;DHT22;27758;55.900;8.516;2023-04-01T03:15:56;4.20;99.90
42099;DHT22;27758;55.900;8.516;2023-04-01T03:18:22;4.20;99.90
42099;DHT22;27758;55.900;8.516;2023-04-01T03:20:47;4.20;99.90
42099;DHT22;27758;55.900;8.516;2023-04-01T03:23:13;4.20;99.90
42099;DHT22;27758;55.900;8.516;2023-04-01T03:25:39;4.20;99.90
42099;DHT22;27758;55.900;8.516;2023-04-01T03:28:05;4.20;99.90
42099;DHT22;27758;55.900;8.516;2023-04-01T03:30:30;4.20;99.90
42099;DHT22;27758;55.900;8.516;2023-04-01T03:32:59;4.20;99.90
42099;DHT22;27758;55.900;8.516;2023-04-01T03:35:26;4.10;99.90
42099;DHT22;27758;55.900;8.516;2023-04-01T03:37:52;4.10;99.90
42099;DHT22;27758;55.900;8.516;2023-04-01T03:40:18;4.10;99.90
42099;DHT22;27758;55.900;8.516;2023-04-01T03:42:44;4.00;99.90
42099;DHT22;27758;55.900;8.516;2023-04-01T03:45:10;4.00;99.90
42099;DHT22;27758;55.900;8.516;2023-04-01T03:47:40;4.00;99.90
42099;DHT22;27758;55.900;8.516;2023-04-01T03:50:07;4.00;99.90
42099;DHT22;27758;55.900;8.516;2023-04-01T03:52:34;4.00;99.90
42099;DHT22;27758;55.900;8.516;2023-04-01T03:55:00;4.00;99.90
42099;DHT22;27758;55.900;8.516;2023-04-01T03:57:26;4.00;99.90
42099;DHT22;27758;55.900;8.516;2023-04-01T03:59:52;3.90;99.90
42099;DHT22;27758;55.900;8.516;2023-04-01T04:02:18;4.00;99.90
42099;DHT22;27758;55.900;8.516;2023-04-01T04:04:44;3.90;99.90
42099;DHT22;27758;55.900;8.516;2023-04-01T04:07:10;3.90;99.90
42099;DHT22;27758;55.900;8.516;2023-04-01T04:09:35;3.90;99.90
42099;DHT22;27758;55.900;8.516;2023-04-01T04:12:01;3.80;99.90
42099;DHT22;27758;55.900;8.516;2023-04-01T04:14:27;3.80;99.90
42099;DHT22;27758;55.900;8.516;2023-04-01T04:16:53;3.80;99.90
42099;DHT22;27758;55.900;8.516;2023-04-01T04:19:19;3.80;99.90
42099;DHT22;27758;55.900;8.516;2023-04-01T04:21:45;3.80;99.90
42099;DHT22;27758;55.900;8.516;2023-04-01T04:24:11;3.80;99.90
42099;DHT22;27758;55.900;8.516;2023-04-01T04:26:36;3.80;99.90
42099;DHT22;27758;55.900;8.516;2023-04-01T04:29:02;3.70;99.90
42099;DHT22;27758;55.900;8.516;2023-04-01T04:31:28;3.70;99.90
42099;DHT22;27758;55.900;8.516;2023-04-01T04:33:54;3.70;99.90
42099;DHT22;27758;55.900;8.516;2023-04-01T04:36:21;3.70;99.90
42099;DHT22;27758;55.900;8.516;2023-04-01T04:38:47;3.70;99.90
42099;DHT22;27758;55.900;8.516;2023-04-01T04:41:17;3.60;99.90
42099;DHT22;27758;55.900;8.516;2023-04-01T04:43:53;3.60;99.90
42099;DHT22;27758;55.900;8.516;2023-04-01T04:46:20;3.60;99.90
42099;DHT22;27758;55.900;8.516;2023-04-01T04:48:46;3.60;99.90
42099;DHT22;27758;55.900;8.516;2023-04-01T04:51:16;3.60;99.90
42099;DHT22;27758;55.900;8.516;2023-04-01T04:53:43;3.60;99.90
42099;DHT22;27758;55.900;8.516;2023-04-01T04:56:09;3.60;99.90
42099;DHT22;27758;55.900;8.516;2023-04-01T04:58:36;3.60;99.90
42099;DHT22;27758;55.900;8.516;2023-04-01T05:01:14;3.60;99.90
42099;DHT22;27758;55.900;8.516;2023-04-01T05:03:41;3.50;99.90
42099;DHT22;27758;55.900;8.516;2023-04-01T05:06:08;3.50;99.90
42099;DHT22;27758;55.900;8.516;2023-04-01T05:08:35;3.60;99.90
42099;DHT22;27758;55.900;8.516;2023-04-01T05:11:02;3.50;99.90
42099;DHT22;27758;55.900;8.516;2023-04-01T05:13:28;3.50;99.90
42099;DHT22;27758;55.900;8.516;2023-04-01T05:15:54;3.50;99.90
42099;DHT22;27758;55.900;8.516;2023-04-01T05:18:21;3.50;99.90
42099;DHT22;27758;55.900;8.516;2023-04-01T05:20:49;3.50;99.90
42099;DHT22;27758;55.900;8.516;2023-04-01T05:23:15;3.50;99.90
42099;DHT22;27758;55.900;8.516;2023-04-01T05:25:40;3.50;99.90
42099;DHT22;27758;55.900;8.516;2023-04-01T05:28:06;3.50;99.90
42099;DHT22;27758;55.900;8.516;2023-04-01T05:30:32;3.40;99.90
42099;DHT22;27758;55.900;8.516;2023-04-01T05:32:58;3.40;99.90
42099;DHT22;27758;55.900;8.516;2023-04-01T05:35:24;3.40;99.90
42099;DHT22;27758;55.900;8.516;2023-04-01T05:37:49;3.40;99.90
42099;DHT22;27758;55.900;8.516;2023-04-01T05:40:15;3.40;99.90
42099;DHT22;27758;55.900;8.516;2023-04-01T05:42:41;3.40;99.90
42099;DHT22;27758;55.900;8.516;2023-04-01T05:45:07;3.40;99.90
42099;DHT22;27758;55.900;8.516;2023-04-01T05:47:34;3.40;99.90
42099;DHT22;27758;55.900;8.516;2023-04-01T05:49:59;3.40;99.90
42099;DHT22;27758;55.900;8.516;2023-04-01T05:52:25;3.30;99.90
42099;DHT22;27758;55.900;8.516;2023-04-01T05:54:51;3.30;99.90
42099;DHT22;27758;55.900;8.516;2023-04-01T05:57:16;3.30;99.90
42099;DHT22;27758;55.900;8.516;2023-04-01T05:59:42;3.30;99.90
42099;DHT22;27758;55.900;8.516;2023-04-01T06:02:09;3.30;99.90
42099;DHT22;27758;55.900;8.516;2023-04-01T06:04:38;3.20;99.90
42099;DHT22;27758;55.900;8.516;2023-04-01T06:07:12;3.20;99.90
42099;DHT22;27758;55.900;8.516;2023-04-01T06:09:38;3.20;99.90
42099;DHT22;27758;55.900;8.516;2023-04-01T06:17:24;3.20;99.90
42099;DHT22;27758;55.900;8.516;2023-04-01T06:37:23;3.10;99.90
42099;DHT22;27758;55.900;8.516;2023-04-01T06:48:38;3.00;99.90
42099;DHT22;27758;55.900;8.516;2023-04-01T06:56:37;3.00;99.90
42099;DHT22;27758;55.900;8.516;2023-04-01T06:59:12;3.00;99.90
42099;DHT22;27758;55.900;8.516;2023-04-01T07:01:42;3.00;99.90
42099;DHT22;27758;55.900;8.516;2023-04-01T07:04:23;3.00;99.90
42099;DHT22;27758;55.900;8.516;2023-04-01T07:07:05;3.00;99.90
42099;DHT22;27758;55.900;8.516;2023-04-01T07:09:41;3.10;99.90
42099;DHT22;27758;55.900;8.516;2023-04-01T07:15:10;3.10;99.90
42099;DHT22;27758;55.900;8.516;2023-04-01T07:17:39;3.00;99.90
42099;DHT22;27758;55.900;8.516;2023-04-01T07:20:32;3.00;99.90
42099;DHT22;27758;55.900;8.516;2023-04-01T07:23:07;3.00;99.90
42099;DHT22;27758;55.900;8.516;2023-04-01T07:25:39;3.10;99.90
42099;DHT22;27758;55.900;8.516;2023-04-01T07:28:11;3.10;99.90
42099;DHT22;27758;55.900;8.516;2023-04-01T07:33:34;3.10;99.90
42099;DHT22;27758;55.900;8.516;2023-04-01T07:36:14;3.10;99.90
42099;DHT22;27758;55.900;8.516;2023-04-01T07:42:04;3.10;99.90
42099;DHT22;27758;55.900;8.516;2023-04-01T07:50:16;3.10;99.90
42099;DHT22;27758;55.900;8.516;2023-04-01T07:55:30;3.00;99.90
42099;DHT22;27758;55.900;8.516;2023-04-01T08:14:52;3.10;99.90
42099;DHT22;27758;55.900;8.516;2023-04-01T08:19:50;3.10;99.90
42099;DHT22;27758;55.900;8.516;2023-04-01T08:22:40;3.10;99.90
42099;DHT22;27758;55.900;8.516;2023-04-01T08:25:13;3.10;99.90
42099;DHT22;27758;55.900;8.516;2023-04-01T08:27:45;3.20;99.90
42099;DHT22;27758;55.900;8.516;2023-04-01T08:30:21;3.20;99.90
42099;DHT22;27758;55.900;8.516;2023-04-01T08:32:59;3.30;99.90
42099;DHT22;27758;55.900;8.516;2023-04-01T08:37:57;3.20;99.90
42099;DHT22;27758;55.900;8.516;2023-04-01T08:51:43;3.10;99.90
42099;DHT22;27758;55.900;8.516;2023-04-01T08:54:38;3.00;99.90
42099;DHT22;27758;55.900;8.516;2023-04-01T09:39:48;3.20;99.90
42099;DHT22;27758;55.900;8.516;2023-04-01T09:45:01;3.30;99.90
42099;DHT22;27758;55.900;8.516;2023-04-01T09:58:32;3.80;99.90
42099;DHT22;27758;55.900;8.516;2023-04-01T10:01:24;4.20;99.90
42099;DHT22;27758;55.900;8.516;2023-04-01T10:10:18;5.80;99.90
42099;DHT22;27758;55.900;8.516;2023-04-01T10:18:34;6.70;99.90
42099;DHT22;27758;55.900;8.516;2023-04-01T10:21:20;6.60;99.90
42099;DHT22;27758;55.900;8.516;2023-04-01T10:23:57;6.70;99.90
42099;DHT22;27758;55.900;8.516;2023-04-01T10:40:03;7.20;99.90
42099;DHT22;27758;55.900;8.516;2023-04-01T11:16:04;8.00;99.90
42099;DHT22;27758;55.900;8.516;2023-04-01T11:37:37;9.10;99.90
42099;DHT22;27758;55.900;8.516;2023-04-01T11:45:40;9.40;99.90
42099;DHT22;27758;55.900;8.516;2023-04-01T11:48:40;9.20;99.90
42099;DHT22;27758;55.900;8.516;2023-04-01T11:57:31;9.20;99.90
42099;DHT22;27758;55.900;8.516;2023-04-01T12:09:00;9.00;99.90
42099;DHT22;27758;55.900;8.516;2023-04-01T12:14:19;9.40;99.90
42099;DHT22;27758;55.900;8.516;2023-04-01T12:17:09;9.40;98.20
42099;DHT22;27758;55.900;8.516;2023-04-01T12:23:06;9.40;96.60
42099;DHT22;27758;55.900;8.516;2023-04-01T12:34:28;9.60;95.00
42099;DHT22;27758;55.900;8.516;2023-04-01T12:43:12;9.20;93.70
42099;DHT22;27758;55.900;8.516;2023-04-01T13:10:29;9.80;94.90
42099;DHT22;27758;55.900;8.516;2023-04-01T13:15:41;10.10;93.80
42099;DHT22;27758;55.900;8.516;2023-04-01T13:21:19;9.80;94.40
42099;DHT22;27758;55.900;8.516;2023-04-01T13:24:10;9.80;93.90
42099;DHT22;27758;55.900;8.516;2023-04-01T13:29:32;9.90;94.40
42099;DHT22;27758;55.900;8.516;2023-04-01T13:32:09;10.00;95.40
42099;DHT22;27758;55.900;8.516;2023-04-01T13:34:59;9.90;93.50
42099;DHT22;27758;55.900;8.516;2023-04-01T13:40:44;9.80;93.90
42099;DHT22;27758;55.900;8.516;2023-04-01T13:43:52;10.20;94.20
42099;DHT22;27758;55.900;8.516;2023-04-01T13:49:15;10.00;92.30
42099;DHT22;27758;55.900;8.516;2023-04-01T14:03:19;9.70;94.50
42099;DHT22;27758;55.900;8.516;2023-04-01T14:06:19;10.00;96.50
42099;DHT22;27758;55.900;8.516;2023-04-01T14:09:11;10.00;97.30
42099;DHT22;27758;55.900;8.516;2023-04-01T14:11:45;9.80;98.20
42099;DHT22;27758;55.900;8.516;2023-04-01T14:14:42;10.00;97.80
42099;DHT22;27758;55.900;8.516;2023-04-01T14:47:54;9.40;99.50
42099;DHT22;27758;55.900;8.516;2023-04-01T14:50:23;9.30;98.40
42099;DHT22;27758;55.900;8.516;2023-04-01T14:53:30;9.10;99.60
42099;DHT22;27758;55.900;8.516;2023-04-01T14:55:59;9.10;99.50
42099;DHT22;27758;55.900;8.516;2023-04-01T14:58:45;9.00;99.80
42099;DHT22;27758;55.900;8.516;2023-04-01T15:06:48;8.90;98.90
42099;DHT22;27758;55.900;8.516;2023-04-01T15:18:15;8.50;99.80
42099;DHT22;27758;55.900;8.516;2023-04-01T15:21:08;8.60;99.90
42099;DHT22;27758;55.900;8.516;2023-04-01T15:35:49;8.50;99.50
42099;DHT22;27758;55.900;8.516;2023-04-01T15:49:08;8.20;99.90
42099;DHT22;27758;55.900;8.516;2023-04-01T16:05:05;8.00;99.90
42099;DHT22;27758;55.900;8.516;2023-04-01T16:16:25;8.00;99.90
42099;DHT22;27758;55.900;8.516;2023-04-01T16:22:00;7.90;99.90
42099;DHT22;27758;55.900;8.516;2023-04-01T16:27:36;7.60;99.90
42099;DHT22;27758;55.900;8.516;2023-04-01T16:30:38;7.70;99.90
42099;DHT22;27758;55.900;8.516;2023-04-01T16:33:47;7.50;99.90
42099;DHT22;27758;55.900;8.516;2023-04-01T16:39:27;7.30;99.90
42099;DHT22;27758;55.900;8.516;2023-04-01T16:47:36;7.20;99.90
42099;DHT22;27758;55.900;8.516;2023-04-01T16:50:23;7.00;99.90
42099;DHT22;27758;55.900;8.516;2023-04-01T16:53:02;6.90;99.90
42099;DHT22;27758;55.900;8.516;2023-04-01T16:55:55;6.90;99.90
42099;DHT22;27758;55.900;8.516;2023-04-01T17:01:22;6.80;99.90
42099;DHT22;27758;55.900;8.516;2023-04-01T17:03:58;6.70;99.90
42099;DHT22;27758;55.900;8.516;2023-04-01T17:06:39;6.60;99.90
42099;DHT22;27758;55.900;8.516;2023-04-01T17:33:10;5.90;99.90
42099;DHT22;27758;55.900;8.516;2023-04-01T17:35:56;5.70;99.90
42099;DHT22;27758;55.900;8.516;2023-04-01T17:39:25;5.70;99.90
42099;DHT22;27758;55.900;8.516;2023-04-01T17:41:54;5.70;99.90
42099;DHT22;27758;55.900;8.516;2023-04-01T17:49:39;5.40;99.90
42099;DHT22;27758;55.900;8.516;2023-04-01T17:52:22;5.40;99.90
42099;DHT22;27758;55.900;8.516;2023-04-01T17:58:03;5.30;99.90
42099;DHT22;27758;55.900;8.516;2023-04-01T18:06:20;5.10;99.90
42099;DHT22;27758;55.900;8.516;2023-04-01T18:09:08;5.00;99.90
42099;DHT22;27758;55.900;8.516;2023-04-01T18:17:42;4.80;99.90
42099;DHT22;27758;55.900;8.516;2023-04-01T18:25:53;4.60;99.90
42099;DHT22;27758;55.900;8.516;2023-04-01T18:33:50;4.50;99.90
42099;DHT22;27758;55.900;8.516;2023-04-01T18:36:48;4.40;99.90
42099;DHT22;27758;55.900;8.516;2023-04-01T18:39:37;4.40;99.90
42099;DHT22;27758;55.900;8.516;2023-04-01T18:42:29;4.30;99.90
42099;DHT22;27758;55.900;8.516;2023-04-01T18:44:59;4.30;99.90
42099;DHT22;27758;55.900;8.516;2023-04-01T18:50:20;4.20;99.90
42099;DHT22;27758;55.900;8.516;2023-04-01T18:52:50;4.20;99.90
42099;DHT22;27758;55.900;8.516;2023-04-01T18:55:42;4.10;99.90
42099;DHT22;27758;55.900;8.516;2023-04-01T18:58:25;4.10;99.90
42099;DHT22;27758;55.900;8.516;2023-04-01T19:01:25;4.00;99.90
42099;DHT22;27758;55.900;8.516;2023-04-01T19:06:26;3.90;99.90
42099;DHT22;27758;55.900;8.516;2023-04-01T19:08:53;4.00;99.90
42099;DHT22;27758;55.900;8.516;2023-04-01T19:11:30;3.90;99.90
42099;DHT22;27758;55.900;8.516;2023-04-01T19:14:46;3.80;99.90
42099;DHT22;27758;55.900;8.516;2023-04-01T19:20:04;3.90;99.90
42099;DHT22;27758;55.900;8.516;2023-04-01T19:28:06;3.70;99.90
42099;DHT22;27758;55.900;8.516;2023-04-01T19:30:53;3.60;99.90
42099;DHT22;27758;55.900;8.516;2023-04-01T19:33:59;3.50;99.90
42099;DHT22;27758;55.900;8.516;2023-04-01T19:36:31;3.60;99.90
42099;DHT22;27758;55.900;8.516;2023-04-01T19:47:37;3.40;99.90
42099;DHT22;27758;55.900;8.516;2023-04-01T19:52:57;3.30;99.90
42099;DHT22;27758;55.900;8.516;2023-04-01T19:55:50;3.30;99.90
42099;DHT22;27758;55.900;8.516;2023-04-01T19:58:26;3.20;99.90
42099;DHT22;27758;55.900;8.516;2023-04-01T20:00:58;3.20;99.90
42099;DHT22;27758;55.900;8.516;2023-04-01T20:03:39;3.10;99.90
42099;DHT22;27758;55.900;8.516;2023-04-01T20:06:20;3.10;99.90
42099;DHT22;27758;55.900;8.516;2023-04-01T20:17:21;2.90;99.90
42099;DHT22;27758;55.900;8.516;2023-04-01T20:19:55;2.90;99.90
42099;DHT22;27758;55.900;8.516;2023-04-01T20:27:45;2.80;99.90
42099;DHT22;27758;55.900;8.516;2023-04-01T20:35:51;2.60;99.90
42099;DHT22;27758;55.900;8.516;2023-04-01T20:44:09;2.60;99.90
42099;DHT22;27758;55.900;8.516;2023-04-01T20:46:56;2.60;99.90
42099;DHT22;27758;55.900;8.516;2023-04-01T20:54:54;2.50;99.90
42099;DHT22;27758;55.900;8.516;2023-04-01T21:00:36;2.50;99.90
42099;DHT22;27758;55.900;8.516;2023-04-01T21:11:01;2.40;99.90
42099;DHT22;27758;55.900;8.516;2023-04-01T21:16:53;2.40;99.90
42099;DHT22;27758;55.900;8.516;2023-04-01T21:31:08;2.20;99.90
42099;DHT22;27758;55.900;8.516;2023-04-01T21:34:04;2.10;99.90
42099;DHT22;27758;55.900;8.516;2023-04-01T21:39:31;2.10;99.90
42099;DHT22;27758;55.900;8.516;2023-04-01T21:45:19;2.10;99.90
42099;DHT22;27758;55.900;8.516;2023-04-01T22:05:28;2.00;99.90
42099;DHT22;27758;55.900;8.516;2023-04-01T22:19:14;1.90;99.90
42099;DHT22;27758;55.900;8.516;2023-04-01T22:24:39;1.90;99.90
42099;DHT22;27758;55.900;8.516;2023-04-01T22:32:46;1.80;99.90
42099;DHT22;27758;55.900;8.516;2023-04-01T22:46:42;1.70;99.90
42099;DHT22;27758;55.900;8.516;2023-04-01T22:49:28;1.70;99.90
42099;DHT22;27758;55.900;8.516;2023-04-01T22:52:13;1.70;99.90
42099;DHT22;27758;55.900;8.516;2023-04-01T22:54:45;1.70;99.90
42099;DHT22;27758;55.900;8.516;2023-04-01T22:59:57;1.70;99.90
42099;DHT22;27758;55.900;8.516;2023-04-01T23:02:28;1.70;99.90
42099;DHT22;27758;55.900;8.516;2023-04-01T23:04:59;1.60;99.90
42099;DHT22;27758;55.900;8.516;2023-04-01T23:10:44;1.60;99.90
42099;DHT22;27758;55.900;8.516;2023-04-01T23:13:36;1.70;99.90
42099;DHT22;27758;55.900;8.516;2023-04-01T23:16:04;1.70;99.90
42099;DHT22;27758;55.900;8.516;2023-04-01T23:29:16;1.60;99.90
42099;DHT22;27758;55.900;8.516;2023-04-01T23:31:44;1.50;99.90
42099;DHT22;27758;55.900;8.516;2023-04-01T23:36:45;1.50;99.90
42099;DHT22;27758;55.900;8.516;2023-04-01T23:39:28;1.50;99.90
42099;DHT22;27758;55.900;8.516;2023-04-01T23:42:07;1.50;99.90
42099;DHT22;27758;55.900;8.516;2023-04-01T23:44:38;1.50;99.90
42099;DHT22;27758;55.900;8.516;2023-04-01T23:47:06;1.50;99.90
42099;DHT22;27758;55.900;8.516;2023-04-01T23:49:36;1.50;99.90
42099;DHT22;27758;55.900;8.516;2023-04-01T23:52:23;1.50;99.90
42099;DHT22;27758;55.900;8.516;2023-04-01T23:54:58;1.50;99.90
42099;DHT22;27758;55.900;8.516;2023-04-01T23:57:33;1.50;99.90
